Igrejinha, Brazil
Current Conditions -  °F | °C
As of 1:00 PM on Friday 19 Dec 2014 (Local Time) from SBCO Reporting Station
Few Clouds Few Clouds  
Wind Chill: 86°   Ceiling: Unl
Heat Index: 86°   Visibility: 6mi
Dew Point: 57°   Wind: 8mph
Humidity: 37%   Direction: 160°SSE
Pressure: 29.8"   Gusts: NA
Location:  29.57°S, 50.79°W
Report Text: SBCO 191500Z 16007KT 130V210 9999 FEW050 FEW055TCU 30/14 Q1009
Loading
Personal Weather Stations






























Interactive Weather Map New forecast layout! Learn more

10-Day Weather Forecast

Advertisements
Track Severe Weather on mobile